createdAt,value
2022-10-22T00:02:20.561Z,14.00
2022-10-22T00:04:48.964Z,14.05
2022-10-22T00:07:17.143Z,14.43
2022-10-22T00:09:43.787Z,15.10
2022-10-22T00:12:10.828Z,13.95
2022-10-22T00:14:38.094Z,12.82
2022-10-22T00:17:06.916Z,14.02
2022-10-22T00:19:38.804Z,12.97
2022-10-22T00:22:06.152Z,13.40
2022-10-22T00:24:34.121Z,13.63
2022-10-22T00:27:01.256Z,12.77
2022-10-22T00:29:27.858Z,12.80
2022-10-22T00:34:22.411Z,12.50
2022-10-22T00:36:50.341Z,12.85
2022-10-22T00:39:18.541Z,12.25
2022-10-22T00:41:46.976Z,13.07
2022-10-22T00:44:51.305Z,12.57
2022-10-22T00:47:18.708Z,11.38
2022-10-22T00:49:46.782Z,11.75
2022-10-22T00:52:14.244Z,11.70
2022-10-22T00:54:42.218Z,10.35
2022-10-22T00:57:09.147Z,11.37
2022-10-22T00:59:37.196Z,11.35
2022-10-22T01:02:04.442Z,11.93
2022-10-22T01:04:31.038Z,11.10
2022-10-22T01:06:57.615Z,11.95
2022-10-22T01:09:39.011Z,11.17
2022-10-22T01:12:33.288Z,11.25
2022-10-22T01:15:10.596Z,11.60
2022-10-22T01:18:00.482Z,11.88
2022-10-22T01:20:29.980Z,12.07
2022-10-22T01:23:24.196Z,14.07
2022-10-22T01:26:00.389Z,12.25
2022-10-22T01:29:04.191Z,11.75
2022-10-22T01:31:36.209Z,12.98
2022-10-22T01:34:04.283Z,12.07
2022-10-22T01:36:32.985Z,12.67
2022-10-22T01:39:01.884Z,12.25
2022-10-22T01:41:29.262Z,11.25
2022-10-22T01:43:55.926Z,11.15
2022-10-22T01:46:24.546Z,10.93
2022-10-22T01:49:13.851Z,11.03
2022-10-22T01:52:26.669Z,10.75
2022-10-22T01:55:25.828Z,10.10
2022-10-22T01:58:07.815Z,10.98
2022-10-22T02:00:38.484Z,10.20
2022-10-22T02:03:18.673Z,11.37
2022-10-22T02:05:59.419Z,11.15
2022-10-22T02:08:30.857Z,10.85
2022-10-22T02:10:59.562Z,10.73
2022-10-22T02:13:50.241Z,10.00
2022-10-22T02:16:24.702Z,11.27
2022-10-22T02:18:54.290Z,11.05
2022-10-22T02:21:21.606Z,11.52
2022-10-22T02:23:48.392Z,10.07
2022-10-22T02:26:25.102Z,10.82
2022-10-22T02:29:01.707Z,10.73
2022-10-22T02:31:31.566Z,10.95
2022-10-22T02:34:02.490Z,11.10
2022-10-22T02:36:29.195Z,10.45
2022-10-22T02:38:56.312Z,10.05
2022-10-22T02:41:23.402Z,10.30
2022-10-22T02:43:54.380Z,10.38
2022-10-22T02:46:21.564Z,9.82
2022-10-22T02:48:48.198Z,9.57
2022-10-22T02:51:15.070Z,9.63
2022-10-22T02:53:41.663Z,10.70
2022-10-22T02:56:08.861Z,9.60
2022-10-22T02:58:35.398Z,9.70
2022-10-22T03:01:02.088Z,10.18
2022-10-22T03:03:28.747Z,10.60
2022-10-22T03:05:55.179Z,9.60
2022-10-22T03:08:21.728Z,9.82
2022-10-22T03:10:48.234Z,9.68
2022-10-22T03:13:14.767Z,9.50
2022-10-22T03:15:41.321Z,9.45
2022-10-22T03:18:07.798Z,10.13
2022-10-22T03:20:34.277Z,9.73
2022-10-22T03:23:02.128Z,10.02
2022-10-22T03:25:31.073Z,10.23
2022-10-22T03:28:02.915Z,9.60
2022-10-22T03:30:29.545Z,9.43
2022-10-22T03:32:56.113Z,9.95
2022-10-22T03:35:22.810Z,9.90
2022-10-22T03:37:49.740Z,9.38
2022-10-22T03:40:17.174Z,9.35
2022-10-22T03:42:44.116Z,8.73
2022-10-22T03:45:11.083Z,9.27
2022-10-22T03:47:38.025Z,8.85
2022-10-22T03:50:06.114Z,9.60
2022-10-22T03:52:37.317Z,9.57
2022-10-22T03:55:05.714Z,9.23
2022-10-22T03:57:32.241Z,8.25
2022-10-22T03:59:58.829Z,8.60
2022-10-22T04:02:25.478Z,9.35
2022-10-22T04:04:52.065Z,9.20
2022-10-22T04:07:18.509Z,8.97
2022-10-22T04:09:45.006Z,9.38
2022-10-22T04:12:12.196Z,8.80
2022-10-22T04:14:38.706Z,9.00
2022-10-22T04:17:05.267Z,9.07
2022-10-22T04:19:31.753Z,9.50
2022-10-22T04:21:59.740Z,10.98
2022-10-22T04:24:27.188Z,11.10
2022-10-22T04:26:54.768Z,10.10
2022-10-22T04:29:21.427Z,9.57
2022-10-22T04:31:47.873Z,10.63
2022-10-22T04:34:14.268Z,10.57
2022-10-22T04:36:40.823Z,10.50
2022-10-22T04:39:07.380Z,10.05
2022-10-22T04:41:36.774Z,11.63
2022-10-22T04:44:03.972Z,11.20
2022-10-22T04:46:32.721Z,9.52
2022-10-22T04:48:59.744Z,10.82
2022-10-22T04:51:27.248Z,10.02
2022-10-22T04:53:54.114Z,11.02
2022-10-22T04:56:27.236Z,10.10
2022-10-22T04:58:56.522Z,9.45
2022-10-22T05:01:36.983Z,9.75
2022-10-22T05:04:07.646Z,11.20
2022-10-22T05:06:36.794Z,11.57
2022-10-22T05:09:10.827Z,10.13
2022-10-22T05:11:41.792Z,10.90
2022-10-22T05:14:10.012Z,10.07
2022-10-22T05:16:38.124Z,11.38
2022-10-22T05:19:05.812Z,11.70
2022-10-22T05:21:32.292Z,11.77
2022-10-22T05:24:02.182Z,10.65
2022-10-22T05:26:29.115Z,9.95
2022-10-22T05:28:56.055Z,9.60
2022-10-22T05:31:22.668Z,9.60
2022-10-22T05:33:49.375Z,9.57
2022-10-22T05:36:20.658Z,9.10
2022-10-22T05:38:47.671Z,10.75
2022-10-22T05:41:17.029Z,9.52
2022-10-22T05:43:43.858Z,10.70
2022-10-22T05:46:13.230Z,10.60
2022-10-22T05:48:39.904Z,9.45
2022-10-22T05:51:11.953Z,9.35
2022-10-22T05:53:41.303Z,9.70
2022-10-22T05:56:14.247Z,9.35
2022-10-22T05:58:41.186Z,9.17
2022-10-22T06:01:17.868Z,10.50
2022-10-22T06:03:45.793Z,10.30
2022-10-22T06:06:19.659Z,10.60
2022-10-22T06:08:51.549Z,10.10
2022-10-22T06:11:19.543Z,9.97
2022-10-22T06:13:47.603Z,9.95
2022-10-22T06:16:14.585Z,10.70
2022-10-22T06:18:41.432Z,9.20
2022-10-22T06:21:13.611Z,9.35
2022-10-22T06:23:41.123Z,9.60
2022-10-22T06:26:08.484Z,10.75
2022-10-22T06:28:37.248Z,11.50
2022-10-22T06:31:04.481Z,10.48
2022-10-22T06:33:34.094Z,11.68
2022-10-22T06:36:18.082Z,11.50
2022-10-22T06:38:44.694Z,11.25
2022-10-22T06:41:16.251Z,11.20
2022-10-22T06:43:47.726Z,11.82
2022-10-22T06:46:20.233Z,11.10
2022-10-22T06:48:55.214Z,10.50
2022-10-22T06:51:21.754Z,10.82
2022-10-22T06:53:48.801Z,10.43
2022-10-22T06:56:18.482Z,11.43
2022-10-22T06:58:50.305Z,11.95
2022-10-22T07:01:19.128Z,11.13
2022-10-22T07:03:45.772Z,11.10
2022-10-22T07:06:14.657Z,11.27
2022-10-22T07:08:42.465Z,10.52
2022-10-22T07:11:15.117Z,11.43
2022-10-22T07:13:41.945Z,11.50
2022-10-22T07:16:09.694Z,11.65
2022-10-22T07:18:37.851Z,10.95
2022-10-22T07:21:05.450Z,11.27
2022-10-22T07:23:31.945Z,10.48
2022-10-22T07:25:59.061Z,10.30
2022-10-22T07:28:25.670Z,10.90
2022-10-22T07:30:52.199Z,11.52
2022-10-22T07:33:18.731Z,11.00
2022-10-22T07:35:45.211Z,11.05
2022-10-22T07:38:11.618Z,10.47
2022-10-22T07:40:38.362Z,11.32
2022-10-22T07:43:05.009Z,10.93
2022-10-22T07:45:31.871Z,10.80
2022-10-22T07:47:59.547Z,11.30
2022-10-22T07:50:26.466Z,10.60
2022-10-22T07:52:54.859Z,9.95
2022-10-22T07:55:23.932Z,10.73
2022-10-22T07:57:50.449Z,10.02
2022-10-22T08:00:19.447Z,9.90
2022-10-22T08:02:48.399Z,10.93
2022-10-22T08:05:16.393Z,10.40
2022-10-22T08:07:43.519Z,11.00
2022-10-22T08:10:11.919Z,10.48
2022-10-22T08:12:41.527Z,10.63
2022-10-22T08:15:08.951Z,10.13
2022-10-22T08:17:36.764Z,10.02
2022-10-22T08:20:03.817Z,10.50
2022-10-22T08:22:30.450Z,11.13
2022-10-22T08:24:57.006Z,10.57
2022-10-22T08:27:23.523Z,10.27
2022-10-22T08:29:50.765Z,10.02
2022-10-22T08:32:17.306Z,10.60
2022-10-22T08:34:43.892Z,10.25
2022-10-22T08:37:14.131Z,10.73
2022-10-22T08:39:41.314Z,10.17
2022-10-22T08:42:33.035Z,10.27
2022-10-22T08:45:44.415Z,10.65
2022-10-22T08:48:38.894Z,11.50
2022-10-22T08:51:05.790Z,9.98
2022-10-22T08:53:41.606Z,9.77
2022-10-22T08:56:08.219Z,9.48
2022-10-22T08:58:53.524Z,9.30
2022-10-22T09:01:25.659Z,8.93
2022-10-22T09:04:01.164Z,9.73
2022-10-22T09:06:31.560Z,8.70
2022-10-22T09:09:00.281Z,9.60
2022-10-22T09:11:32.612Z,9.45
2022-10-22T09:14:00.177Z,10.45
2022-10-22T09:16:36.710Z,10.32
2022-10-22T09:19:35.605Z,9.70
2022-10-22T09:22:14.290Z,9.98
2022-10-22T09:24:52.068Z,10.30
2022-10-22T09:27:23.606Z,9.70
2022-10-22T09:29:50.153Z,9.80
2022-10-22T09:32:17.877Z,9.73
2022-10-22T09:34:46.331Z,10.07
2022-10-22T09:37:15.881Z,9.27
2022-10-22T09:39:48.003Z,9.50
2022-10-22T09:42:16.973Z,8.90
2022-10-22T09:44:47.709Z,9.27
2022-10-22T09:47:42.826Z,10.00
2022-10-22T09:50:23.010Z,9.70
2022-10-22T09:53:20.449Z,10.15
2022-10-22T09:55:53.741Z,10.15
2022-10-22T09:58:20.756Z,9.20
2022-10-22T10:00:57.708Z,11.60
2022-10-22T10:03:29.395Z,11.93
2022-10-22T10:06:02.993Z,9.95
2022-10-22T10:08:32.442Z,10.10
2022-10-22T10:11:06.084Z,10.27
2022-10-22T10:13:45.361Z,10.95
2022-10-22T10:16:30.526Z,11.50
2022-10-22T10:19:20.889Z,10.60
2022-10-22T10:22:05.869Z,10.77
2022-10-22T10:25:14.609Z,10.60
2022-10-22T10:27:47.473Z,11.68
2022-10-22T10:30:18.197Z,10.90
2022-10-22T10:33:20.025Z,12.60
2022-10-22T10:35:56.744Z,11.85
2022-10-22T10:38:58.107Z,12.50
2022-10-22T10:41:43.321Z,11.68
2022-10-22T10:44:20.825Z,12.68
2022-10-22T10:46:55.158Z,13.07
2022-10-22T10:49:27.188Z,12.45
2022-10-22T10:52:10.382Z,12.00
2022-10-22T10:55:00.642Z,12.75
2022-10-22T10:57:47.205Z,11.65
2022-10-22T11:00:20.171Z,12.73
2022-10-22T11:03:30.569Z,12.55
2022-10-22T11:06:01.601Z,10.50
2022-10-22T11:08:36.625Z,11.70
2022-10-22T11:11:12.821Z,11.00
2022-10-22T11:13:51.441Z,12.35
2022-10-22T11:16:26.980Z,10.43
2022-10-22T11:19:06.100Z,11.23
2022-10-22T11:21:41.301Z,12.65
2022-10-22T11:24:07.802Z,11.82
2022-10-22T11:26:43.984Z,11.38
2022-10-22T11:29:29.459Z,12.30
2022-10-22T11:32:01.237Z,11.97
2022-10-22T11:34:34.281Z,10.82
2022-10-22T11:37:04.775Z,10.73
2022-10-22T11:40:05.250Z,10.93
2022-10-22T11:42:38.075Z,11.40
2022-10-22T11:45:06.714Z,11.30
2022-10-22T11:47:41.966Z,11.25
2022-10-22T11:50:26.813Z,11.15
2022-10-22T11:53:07.733Z,10.60
2022-10-22T11:55:45.419Z,11.15
2022-10-22T11:58:50.816Z,11.50
2022-10-22T12:01:26.469Z,10.77
2022-10-22T12:04:12.994Z,11.27
2022-10-22T12:06:59.338Z,10.75
2022-10-22T12:09:30.057Z,10.25
2022-10-22T12:12:04.586Z,10.00
2022-10-22T12:14:50.546Z,10.63
2022-10-22T12:17:18.084Z,10.80
2022-10-22T12:19:51.145Z,10.82
2022-10-22T12:22:32.286Z,10.77
2022-10-22T12:25:06.094Z,9.93
2022-10-22T12:27:41.028Z,10.10
2022-10-22T12:30:29.499Z,10.13
2022-10-22T12:32:58.511Z,9.65
2022-10-22T12:35:28.154Z,9.13
2022-10-22T12:37:57.174Z,9.27
2022-10-22T12:40:26.493Z,8.43
2022-10-22T12:42:56.639Z,8.88
2022-10-22T12:45:26.566Z,8.70
2022-10-22T12:47:57.809Z,8.20
2022-10-22T12:50:37.473Z,6.53
2022-10-22T12:53:15.046Z,5.90
2022-10-22T12:55:41.988Z,5.13
2022-10-22T12:58:08.653Z,5.45
2022-10-22T13:00:35.863Z,5.60
2022-10-22T13:03:05.797Z,5.53
2022-10-22T13:05:38.874Z,5.10
2022-10-22T13:08:10.427Z,4.47
2022-10-22T13:10:40.586Z,4.57
2022-10-22T13:13:07.382Z,4.10
2022-10-22T13:15:37.547Z,3.40
2022-10-22T13:18:07.370Z,3.47
2022-10-22T13:20:37.273Z,3.67
2022-10-22T13:23:06.179Z,3.22
2022-10-22T13:25:35.614Z,2.78
2022-10-22T13:28:19.504Z,2.90
2022-10-22T13:31:16.273Z,2.40
2022-10-22T13:33:45.842Z,2.55
2022-10-22T13:36:16.826Z,2.75
2022-10-22T13:38:44.135Z,2.42
2022-10-22T13:44:12.131Z,2.40
2022-10-22T13:46:42.563Z,2.67
2022-10-22T13:49:22.446Z,2.50
2022-10-22T13:51:50.817Z,2.50
2022-10-22T13:54:20.981Z,2.63
2022-10-22T13:56:47.508Z,2.20
2022-10-22T13:59:15.375Z,2.30
2022-10-22T14:01:45.555Z,2.10
2022-10-22T14:04:14.561Z,2.08
2022-10-22T14:06:41.070Z,2.17
2022-10-22T14:09:13.365Z,2.20
2022-10-22T14:11:39.889Z,2.50
2022-10-22T14:14:08.976Z,2.45
2022-10-22T14:16:37.413Z,2.53
2022-10-22T14:19:07.247Z,2.40
2022-10-22T14:21:37.087Z,2.05
2022-10-22T14:24:05.986Z,2.42
2022-10-22T14:26:35.058Z,2.45
2022-10-22T14:29:10.999Z,2.17
2022-10-22T14:31:43.416Z,2.43
2022-10-22T14:34:12.188Z,2.60
2022-10-22T14:36:38.982Z,2.70
2022-10-22T14:39:05.487Z,2.50
2022-10-22T14:41:31.950Z,2.65
2022-10-22T14:43:59.742Z,3.03
2022-10-22T14:46:26.296Z,2.55
2022-10-22T14:48:52.786Z,2.80
2022-10-22T14:51:21.373Z,2.80
2022-10-22T14:53:48.026Z,2.20
2022-10-22T14:56:17.387Z,2.37
2022-10-22T14:58:45.506Z,2.22
2022-10-22T15:01:12.520Z,2.53
2022-10-22T15:03:39.014Z,2.60
2022-10-22T15:06:06.050Z,2.35
2022-10-22T15:08:32.955Z,2.20
2022-10-22T15:11:01.847Z,2.25
2022-10-22T15:13:29.220Z,2.58
2022-10-22T15:15:57.027Z,2.17
2022-10-22T15:18:23.875Z,2.50
2022-10-22T15:21:00.653Z,2.70
2022-10-22T15:23:27.639Z,2.65
2022-10-22T15:25:54.450Z,2.30
2022-10-22T15:28:21.166Z,2.40
2022-10-22T15:30:53.147Z,2.33
2022-10-22T15:33:19.841Z,2.40
2022-10-22T15:35:46.369Z,3.00
2022-10-22T15:38:12.939Z,2.67
2022-10-22T15:40:39.517Z,2.63
2022-10-22T15:43:06.002Z,2.85
2022-10-22T15:45:32.501Z,2.50
2022-10-22T15:47:58.996Z,4.45
2022-10-22T15:50:25.555Z,7.88
2022-10-22T15:52:52.154Z,7.18
2022-10-22T15:55:18.824Z,8.73
2022-10-22T15:57:45.869Z,7.23
2022-10-22T16:00:13.003Z,8.02
2022-10-22T16:02:40.572Z,10.20
2022-10-22T16:05:07.629Z,11.95
2022-10-22T16:07:34.088Z,12.10
2022-10-22T16:10:01.594Z,12.03
2022-10-22T16:12:28.147Z,11.40
2022-10-22T16:14:54.608Z,10.10
2022-10-22T16:17:21.264Z,9.52
2022-10-22T16:19:48.178Z,9.20
2022-10-22T16:22:15.611Z,10.00
2022-10-22T16:24:42.213Z,9.25
2022-10-22T16:27:09.265Z,10.10
2022-10-22T16:29:38.348Z,10.00
2022-10-22T16:32:05.294Z,9.07
2022-10-22T16:34:31.923Z,9.27
2022-10-22T16:36:58.514Z,9.02
2022-10-22T16:39:25.303Z,13.15
2022-10-22T16:41:51.977Z,14.73
2022-10-22T16:44:18.656Z,13.80
2022-10-22T16:46:45.256Z,15.20
2022-10-22T16:49:11.856Z,14.30
2022-10-22T16:51:39.253Z,15.25
2022-10-22T16:54:08.351Z,14.27
2022-10-22T16:56:38.035Z,15.13
2022-10-22T16:59:04.583Z,15.50
2022-10-22T17:01:31.472Z,17.30
2022-10-22T17:04:01.559Z,19.17
2022-10-22T17:06:28.638Z,19.83
2022-10-22T17:08:55.262Z,19.40
2022-10-22T17:11:23.790Z,18.90
2022-10-22T17:13:52.701Z,17.60
2022-10-22T17:16:21.624Z,16.30
2022-10-22T17:18:48.988Z,15.48
2022-10-22T17:21:16.256Z,14.38
2022-10-22T17:23:42.813Z,14.13
2022-10-22T17:26:14.750Z,13.45
2022-10-22T17:28:41.436Z,14.70
2022-10-22T17:31:37.316Z,15.15
2022-10-22T17:34:06.422Z,12.20
2022-10-22T17:36:35.866Z,15.50
2022-10-22T17:39:06.358Z,13.60
2022-10-22T17:41:36.233Z,12.20
2022-10-22T17:44:05.640Z,10.73
2022-10-22T17:46:32.733Z,10.23
2022-10-22T17:49:01.790Z,8.63
2022-10-22T17:51:29.839Z,7.60
2022-10-22T17:53:56.708Z,7.65
2022-10-22T17:56:29.792Z,8.32
2022-10-22T17:58:56.613Z,7.90
2022-10-22T18:01:28.421Z,8.07
2022-10-22T18:03:59.873Z,7.22
2022-10-22T18:06:26.580Z,6.45
2022-10-22T18:11:22.966Z,8.07
2022-10-22T18:13:53.615Z,9.33
2022-10-22T18:16:20.588Z,8.65
2022-10-22T18:18:49.567Z,7.22
2022-10-22T18:21:17.496Z,7.70
2022-10-22T18:23:45.007Z,7.10
2022-10-22T18:26:11.992Z,8.47
2022-10-22T18:28:38.468Z,7.65
2022-10-22T18:31:07.104Z,6.80
2022-10-22T18:33:34.927Z,6.55
2022-10-22T18:36:06.916Z,5.63
2022-10-22T18:38:33.754Z,5.63
2022-10-22T18:41:00.300Z,5.00
2022-10-22T18:43:27.289Z,5.00
2022-10-22T18:45:53.842Z,6.93
2022-10-22T18:48:22.824Z,7.75
2022-10-22T18:50:59.427Z,7.27
2022-10-22T18:53:26.402Z,7.60
2022-10-22T18:55:53.121Z,8.13
2022-10-22T18:58:19.735Z,6.60
2022-10-22T19:00:46.281Z,7.25
2022-10-22T19:03:14.227Z,6.73
2022-10-22T19:05:52.158Z,7.53
2022-10-22T19:08:19.916Z,7.78
2022-10-22T19:10:48.142Z,9.43
2022-10-22T19:13:16.465Z,11.13
2022-10-22T19:15:43.093Z,10.00
2022-10-22T19:18:10.055Z,10.80
2022-10-22T19:20:36.949Z,14.48
2022-10-22T19:23:04.269Z,15.23
2022-10-22T19:25:30.829Z,13.50
2022-10-22T19:27:57.392Z,12.00
2022-10-22T19:30:24.248Z,10.77
2022-10-22T19:32:50.867Z,10.18
2022-10-22T19:35:17.544Z,10.95
2022-10-22T19:37:48.206Z,17.15
2022-10-22T19:40:15.493Z,16.97
2022-10-22T19:42:44.207Z,10.68
2022-10-22T19:45:11.150Z,9.43
2022-10-22T19:47:37.774Z,9.80
2022-10-22T19:50:04.534Z,9.13
2022-10-22T19:52:30.990Z,8.47
2022-10-22T19:54:57.478Z,8.27
2022-10-22T19:57:24.045Z,8.98
2022-10-22T19:59:50.896Z,7.97
2022-10-22T20:02:18.394Z,7.75
2022-10-22T20:04:49.212Z,7.57
2022-10-22T20:07:16.967Z,7.38
2022-10-22T20:09:43.491Z,6.28
2022-10-22T20:12:09.999Z,6.22
2022-10-22T20:14:37.416Z,5.72
2022-10-22T20:17:04.079Z,5.50
2022-10-22T20:19:30.760Z,5.95
2022-10-22T20:21:57.229Z,5.43
2022-10-22T20:24:23.749Z,5.20
2022-10-22T20:26:50.164Z,5.70
2022-10-22T20:29:18.997Z,5.07
2022-10-22T20:31:46.574Z,11.32
2022-10-22T20:34:13.540Z,4.28
2022-10-22T20:36:41.487Z,4.20
2022-10-22T20:39:11.867Z,4.55
2022-10-22T20:41:40.352Z,4.50
2022-10-22T20:44:11.190Z,4.50
2022-10-22T20:46:37.646Z,4.70
2022-10-22T20:49:15.860Z,4.10
2022-10-22T20:51:42.884Z,4.03
2022-10-22T20:54:10.516Z,4.40
2022-10-22T20:56:38.693Z,4.55
2022-10-22T20:59:07.997Z,4.38
2022-10-22T21:01:39.055Z,4.75
2022-10-22T21:04:06.608Z,4.40
2022-10-22T21:06:34.257Z,4.40
2022-10-22T21:09:00.827Z,5.05
2022-10-22T21:11:27.368Z,4.85
2022-10-22T21:13:53.875Z,5.35
2022-10-22T21:16:20.487Z,6.03
2022-10-22T21:18:47.325Z,5.60
2022-10-22T21:21:14.029Z,5.05
2022-10-22T21:23:40.507Z,5.80
2022-10-22T21:26:07.094Z,5.40
2022-10-22T21:28:35.747Z,5.88
2022-10-22T21:31:04.255Z,6.40
2022-10-22T21:33:31.298Z,5.20
2022-10-22T21:35:58.446Z,5.00
2022-10-22T21:38:25.455Z,6.28
2022-10-22T21:40:52.553Z,5.07
2022-10-22T21:43:19.407Z,5.50
2022-10-22T21:45:45.919Z,4.75
2022-10-22T21:48:15.394Z,4.90
2022-10-22T21:50:43.770Z,4.80
2022-10-22T21:53:12.125Z,4.88
2022-10-22T21:55:42.036Z,4.73
2022-10-22T21:58:08.678Z,4.93
2022-10-22T22:00:35.582Z,4.53
2022-10-22T22:03:02.221Z,4.50
2022-10-22T22:05:29.223Z,4.78
2022-10-22T22:07:55.713Z,4.30
2022-10-22T22:10:22.252Z,4.53
2022-10-22T22:12:51.162Z,5.13
2022-10-22T22:15:19.001Z,4.55
2022-10-22T22:17:45.599Z,5.22
2022-10-22T22:20:12.144Z,4.83
2022-10-22T22:22:40.037Z,4.93
2022-10-22T22:25:06.980Z,4.35
2022-10-22T22:27:33.482Z,5.05
2022-10-22T22:30:00.024Z,5.13
2022-10-22T22:32:26.578Z,5.57
2022-10-22T22:34:53.095Z,5.70
2022-10-22T22:37:19.557Z,5.63
2022-10-22T22:39:46.011Z,5.80
2022-10-22T22:42:12.489Z,5.68
2022-10-22T22:44:39.235Z,5.20
2022-10-22T22:47:05.725Z,5.43
2022-10-22T22:49:33.134Z,4.80
2022-10-22T22:51:59.719Z,4.82
2022-10-22T22:54:26.224Z,4.60
2022-10-22T22:56:52.705Z,4.50
2022-10-22T22:59:19.432Z,4.68
2022-10-22T23:01:48.233Z,5.85
2022-10-22T23:04:19.326Z,7.80
2022-10-22T23:06:46.258Z,6.72
2022-10-22T23:09:14.491Z,7.40
2022-10-22T23:11:42.330Z,7.15
2022-10-22T23:14:13.638Z,6.53
2022-10-22T23:16:42.468Z,6.47
2022-10-22T23:19:09.997Z,6.85
2022-10-22T23:21:39.042Z,5.90
2022-10-22T23:24:11.565Z,6.07
2022-10-22T23:26:44.699Z,6.07
2022-10-22T23:29:17.108Z,6.97
2022-10-22T23:31:44.870Z,6.45
2022-10-22T23:34:15.892Z,6.20
2022-10-22T23:36:42.694Z,6.53
2022-10-22T23:39:15.174Z,6.38
2022-10-22T23:41:41.703Z,6.10
2022-10-22T23:44:09.776Z,6.80
2022-10-22T23:46:38.464Z,7.10
2022-10-22T23:49:06.296Z,6.75
2022-10-22T23:51:33.081Z,7.85
2022-10-22T23:54:02.256Z,6.53
2022-10-22T23:56:29.283Z,6.38
2022-10-22T23:58:56.597Z,6.93
